»·PEaware :: N6254D KSBA-KLAS

N6254D :: KSBA-KLAS

FLIGHT INFORMATION

Flight Status: Arrived
Operator: Privately registered:
United States
More flights under this callsign
Pilot: Isaac R. (8401)
Aircraft: CESSNA 550 CITATION 2/S2/BRAVO
(C550)
More flights by this aircraft type
Origin: KSBA Santa Barbara Mun
United States
Destination: KLAS McCarran Intl
United States
More flights between these airports :: More routes between these airports
Route: +MISHN3 NNAVY MISEN KEPEC6
File this flight plan on PilotEdge
Remarks:
Altitude:
(Current/Filed)
31,000ft
Speed:
(Current/Filed)
400kts
Departed: 01-Aug-20 01:46 PM
Arrived: 01-Aug-20 02:46 PM
Distance/Time
Traveled:
250nm/1:00
Distance/Time
To Go:
Arrived

Flight Plot

Page will automatically refresh every two minutes.


Map Options




Map Legend


Flown Route
Filed Route
Departure Airport
Arrival Airport
Navaid (VOR, NDB)
Fix

Horizontal Profiles

Position Reports

Time Latitude Longitude Heading Altitude Ground
Speed
01-Aug-20 13:32 34.423106 -119.836124 165 13ft 0kts
01-Aug-20 13:33 34.423106 -119.836124 165 13ft 0kts
01-Aug-20 13:34 34.423106 -119.836124 165 13ft 0kts
01-Aug-20 13:35 34.423106 -119.836124 165 13ft 0kts
01-Aug-20 13:36 34.423106 -119.836124 165 13ft 0kts
01-Aug-20 13:38 34.423106 -119.836124 165 13ft 0kts
01-Aug-20 13:39 34.423106 -119.836124 165 13ft 0kts
01-Aug-20 13:40 34.423106 -119.836124 165 13ft 0kts
01-Aug-20 13:41 34.423106 -119.836124 165 13ft 0kts
01-Aug-20 13:42 34.424419 -119.837621 346 13ft 21kts
01-Aug-20 13:43 34.426644 -119.841635 269 13ft 15kts
01-Aug-20 13:44 34.426496 -119.848473 270 13ft 22kts
01-Aug-20 13:45 34.426734 -119.854407 320 13ft 15kts
01-Aug-20 13:46 34.427631 -119.846316 90 13ft 109kts
01-Aug-20 13:47 34.415447 -119.797183 148 1588ft 179kts
01-Aug-20 13:48 34.370845 -119.759959 154 3385ft 204kts
01-Aug-20 13:49 34.317948 -119.723460 152 5469ft 234kts
01-Aug-20 13:50 34.279404 -119.664894 75 7595ft 250kts
01-Aug-20 13:51 34.302226 -119.582764 71 9915ft 267kts
01-Aug-20 13:52 34.322862 -119.494838 75 12713ft 274kts
01-Aug-20 13:53 34.343094 -119.406375 75 15444ft 272kts
01-Aug-20 13:53 34.360540 -119.329639 75 16978ft 294kts
01-Aug-20 13:55 34.386652 -119.214368 75 19220ft 310kts
01-Aug-20 13:56 34.409517 -119.112972 75 21222ft 311kts
01-Aug-20 13:56 34.428226 -119.029684 75 22874ft 305kts
01-Aug-20 13:57 34.450000 -118.932386 75 24855ft 291kts
01-Aug-20 13:59 34.473638 -118.826305 75 27040ft 267kts
01-Aug-20 14:00 34.493206 -118.738124 74 28096ft 274kts
01-Aug-20 14:00 34.509526 -118.664328 74 28879ft 276kts
01-Aug-20 14:01 34.530633 -118.568534 74 29042ft 314kts
01-Aug-20 14:02 34.554527 -118.459614 75 29049ft 353kts
01-Aug-20 14:03 34.581068 -118.338035 75 29068ft 390kts
01-Aug-20 14:04 34.609569 -118.206768 75 29066ft 411kts
01-Aug-20 14:05 34.638983 -118.070492 75 29079ft 420kts
01-Aug-20 14:06 34.668313 -117.933855 75 29069ft 417kts
01-Aug-20 14:07 34.697414 -117.797465 75 29053ft 416kts
01-Aug-20 14:08 34.726261 -117.661450 75 29050ft 415kts
01-Aug-20 14:09 34.754852 -117.525829 75 29061ft 413kts
01-Aug-20 14:10 34.783243 -117.390355 75 29067ft 413kts
01-Aug-20 14:11 34.811478 -117.254807 75 29082ft 413kts
01-Aug-20 14:12 34.839525 -117.119349 75 29076ft 413kts
01-Aug-20 14:13 34.867465 -116.983579 75 29013ft 414kts
01-Aug-20 14:14 34.895417 -116.846920 75 28994ft 414kts
01-Aug-20 14:15 34.929693 -116.713745 60 28994ft 412kts
01-Aug-20 14:16 34.993333 -116.597411 53 28466ft 418kts
01-Aug-20 14:17 35.059027 -116.480773 54 26755ft 415kts
01-Aug-20 14:18 35.129448 -116.370002 44 25064ft 412kts
01-Aug-20 14:19 35.208305 -116.271087 44 23366ft 402kts
01-Aug-20 14:20 35.286433 -116.172928 44 21665ft 398kts
01-Aug-20 14:21 35.356553 -116.084594 44 19954ft 337kts
01-Aug-20 14:22 35.419863 -116.004658 45 18255ft 319kts
01-Aug-20 14:23 35.480188 -115.928311 45 17025ft 307kts
01-Aug-20 14:24 35.540149 -115.852198 45 15833ft 317kts
01-Aug-20 14:25 35.602657 -115.772737 45 14636ft 327kts
01-Aug-20 14:26 35.666260 -115.691673 45 13438ft 330kts
01-Aug-20 14:27 35.728952 -115.611535 45 12798ft 323kts
01-Aug-20 14:28 35.808952 -115.572666 0 11834ft 323kts
01-Aug-20 14:29 35.898300 -115.566569 10 11048ft 321kts
01-Aug-20 14:30 35.943306 -115.482723 79 11018ft 308kts
01-Aug-20 14:31 35.960705 -115.379086 79 11011ft 311kts
01-Aug-20 14:32 35.978271 -115.273844 79 10669ft 323kts
01-Aug-20 14:33 35.996729 -115.162728 79 9574ft 334kts
01-Aug-20 14:34 36.008447 -115.049591 95 8475ft 322kts
01-Aug-20 14:35 36.025485 -114.952074 36 7396ft 302kts
01-Aug-20 14:36 36.100333 -114.908970 21 6306ft 294kts
01-Aug-20 14:37 36.175993 -114.871799 21 5310ft 288kts
01-Aug-20 14:38 36.236277 -114.904910 295 5139ft 254kts
01-Aug-20 14:39 36.252773 -114.984836 261 5136ft 238kts
01-Aug-20 14:40 36.231877 -115.059562 235 5060ft 216kts
01-Aug-20 14:41 36.189145 -115.105442 202 4360ft 192kts
01-Aug-20 14:42 36.148153 -115.128752 207 3198ft 143kts
01-Aug-20 14:43 36.112680 -115.149010 208 2491ft 137kts
01-Aug-20 14:44 36.084478 -115.165199 206 2118ft 44kts
01-Aug-20 14:45 36.082443 -115.167423 294 2118ft 0kts
01-Aug-20 14:46 36.083602 -115.168043 18 2118ft 19kts
01-Aug-20 14:47 36.090425 -115.164149 23 2118ft 23kts
01-Aug-20 14:48 36.095231 -115.161386 25 2118ft 18kts
01-Aug-20 14:49 36.098259 -115.160809 18 2118ft 9kts
01-Aug-20 14:50 36.098930 -115.159930 113 2118ft 0kts
01-Aug-20 14:51 36.098930 -115.159930 113 2118ft 0kts

Navigation Log

Ident Type
Flight plan parsing failed, navigation log unavailable